Time;durP1;ratioP1;P1;durP2;ratioP2;P2;SDS_P1;SDS_P2;PMS_P1;PMS_P2;Temp;Humidity;BMP_temperature;BMP_pressure;BME280_temperature;BME280_humidity;BME280_pressure;Samples;Min_cycle;Max_cycle;Signal;HPM_P1;HPM_P2
2023/03/11 00:04:40;;;;;;;5.73;4.77;;;1.30;99.90;;;;;;2609123;54;20154;-71
2023/03/11 00:10:35;;;;;;;4.43;3.57;;;1.40;99.90;;;;;;2612610;54;20134;-70
2023/03/11 00:16:22;;;;;;;5.60;3.30;;;1.30;99.90;;;;;;2614459;54;20419;-71
2023/03/11 00:22:10;;;;;;;3.57;3.17;;;1.40;99.90;;;;;;2615289;31;20609;-71
2023/03/11 00:27:58;;;;;;;2.07;1.87;;;1.50;99.90;;;;;;2614032;46;20212;-71
2023/03/11 00:33:46;;;;;;;5.80;3.90;;;1.60;99.90;;;;;;2614089;54;20422;-71
2023/03/11 00:43:37;;;;;;;5.70;4.50;;;1.50;99.90;;;;;;2614074;54;20372;-72
2023/03/11 00:49:25;;;;;;;8.10;4.27;;;1.60;99.90;;;;;;2611008;54;20383;-71
2023/03/11 00:55:15;;;;;;;5.40;3.90;;;1.50;99.90;;;;;;2612796;46;20127;-71
2023/03/11 01:01:07;;;;;;;5.80;4.20;;;1.50;99.90;;;;;;2612962;39;20775;-71
2023/03/11 01:06:55;;;;;;;4.13;3.73;;;1.40;99.90;;;;;;2611689;54;20397;-70
2023/03/11 01:12:43;;;;;;;3.77;3.37;;;1.50;99.90;;;;;;2611701;54;20139;-70
2023/03/11 01:18:31;;;;;;;5.07;3.20;;;1.50;99.90;;;;;;2611327;54;20665;-70
2023/03/11 01:24:18;;;;;;;4.70;2.90;;;1.50;99.90;;;;;;2614368;31;20597;-71
2023/03/11 01:30:07;;;;;;;7.30;2.63;;;1.40;99.90;;;;;;2612163;54;20150;-71
2023/03/11 01:35:55;;;;;;;4.10;3.17;;;1.40;99.90;;;;;;2612480;54;20391;-71
2023/03/11 01:39:00;;;;;;;3.67;3.10;;;1.50;99.90;;;;;;2612045;54;20395;-72
2023/03/11 01:51:55;;;;;;;9.63;3.80;;;1.50;99.90;;;;;;2611368;54;20360;-70
2023/03/11 01:57:45;;;;;;;6.57;3.43;;;1.40;99.90;;;;;;2609746;54;20904;-70
2023/03/11 02:03:37;;;;;;;5.93;4.53;;;1.30;99.90;;;;;;2611686;54;20346;-70
2023/03/11 02:09:25;;;;;;;5.90;3.90;;;1.30;99.90;;;;;;2611025;54;20413;-70
2023/03/11 02:15:13;;;;;;;5.50;3.90;;;1.30;99.90;;;;;;2610457;54;21041;-70
2023/03/11 02:27:35;;;;;;;7.33;4.17;;;1.10;99.90;;;;;;2612215;54;20423;-71
2023/03/11 02:33:28;;;;;;;10.27;5.33;;;0.90;99.90;;;;;;2612388;54;20390;-70
2023/03/11 02:39:16;;;;;;;5.37;4.20;;;0.80;99.90;;;;;;2612741;54;20339;-70
2023/03/11 02:48:28;;;;;;;6.43;3.77;;;0.80;99.90;;;;;;2612151;39;20817;-69
2023/03/11 02:54:15;;;;;;;14.80;5.30;;;0.70;99.90;;;;;;2612854;54;20381;-69
2023/03/11 03:00:13;;;;;;;7.33;2.97;;;0.60;99.90;;;;;;2610938;39;20648;-70
2023/03/11 03:06:00;;;;;;;5.90;4.20;;;0.70;99.90;;;;;;2610953;54;20370;-70
2023/03/11 03:11:48;;;;;;;4.40;3.37;;;0.60;99.90;;;;;;2610672;54;20387;-70
2023/03/11 03:20:56;;;;;;;22.23;4.83;;;0.70;99.90;;;;;;2611409;54;20391;-69
2023/03/11 03:26:43;;;;;;;9.53;4.90;;;0.80;99.90;;;;;;2611463;39;20436;-71
2023/03/11 03:32:30;;;;;;;9.63;4.50;;;0.80;99.90;;;;;;2611134;54;20161;-70
2023/03/11 03:38:18;;;;;;;5.13;4.20;;;0.90;99.90;;;;;;2611708;54;20256;-70
2023/03/11 03:48:21;;;;;;;4.97;4.00;;;0.90;99.90;;;;;;2612900;54;20378;-76
2023/03/11 03:54:08;;;;;;;11.20;4.63;;;0.90;99.90;;;;;;2614080;54;20383;-76
2023/03/11 03:59:56;;;;;;;7.27;4.27;;;1.00;99.90;;;;;;2609881;54;20158;-76
2023/03/11 04:05:44;;;;;;;10.40;5.10;;;1.00;99.90;;;;;;2613392;54;20900;-76
2023/03/11 04:11:32;;;;;;;5.93;4.27;;;1.00;99.90;;;;;;2610921;54;20134;-77
2023/03/11 04:17:20;;;;;;;9.10;5.10;;;0.90;99.90;;;;;;2611203;54;20138;-76
2023/03/11 04:23:07;;;;;;;8.53;5.50;;;0.90;99.90;;;;;;2612961;54;20179;-76
2023/03/11 04:28:55;;;;;;;12.40;4.77;;;0.90;99.90;;;;;;2612635;39;20543;-76
2023/03/11 04:34:43;;;;;;;11.90;4.33;;;0.90;99.90;;;;;;2612491;54;20134;-76
2023/03/11 04:40:31;;;;;;;10.63;4.93;;;0.90;99.90;;;;;;2612989;54;20780;-77
2023/03/11 04:43:50;;;;;;;11.47;5.97;;;0.90;99.90;;;;;;2610505;47;20398;-76
2023/03/11 04:46:15;;;;;;;10.70;4.87;;;0.90;99.90;;;;;;2613233;47;20173;-77
2023/03/11 04:52:03;;;;;;;7.27;3.40;;;0.90;99.90;;;;;;2611031;39;20494;-77
2023/03/11 04:57:51;;;;;;;5.03;3.77;;;0.90;99.90;;;;;;2612480;54;20141;-76
2023/03/11 05:03:39;;;;;;;8.93;4.53;;;0.90;99.90;;;;;;2614725;54;20850;-76
2023/03/11 05:09:26;;;;;;;9.10;3.70;;;0.80;99.90;;;;;;2609641;54;20126;-75
2023/03/11 05:15:14;;;;;;;8.83;4.83;;;0.80;99.90;;;;;;2614302;39;20432;-77
2023/03/11 05:21:02;;;;;;;6.33;5.03;;;0.80;99.90;;;;;;2613587;54;20138;-76
2023/03/11 05:26:49;;;;;;;7.93;5.00;;;0.80;99.90;;;;;;2611171;54;20135;-76
2023/03/11 05:32:37;;;;;;;8.50;4.60;;;0.80;99.90;;;;;;2612256;54;20167;-77
2023/03/11 05:38:25;;;;;;;5.90;4.70;;;0.80;99.90;;;;;;2610984;54;20169;-76
2023/03/11 05:48:21;;;;;;;8.77;4.10;;;0.50;99.90;;;;;;2612259;54;20487;-76
2023/03/11 05:54:13;;;;;;;6.47;4.20;;;0.40;99.90;;;;;;2612966;39;20747;-76
2023/03/11 06:00:04;;;;;;;14.53;4.30;;;0.50;99.90;;;;;;2612800;54;20375;-77
2023/03/11 06:05:52;;;;;;;13.30;4.77;;;0.50;99.90;;;;;;2612944;39;20905;-76
2023/03/11 06:11:40;;;;;;;7.97;4.33;;;0.50;99.90;;;;;;2609629;39;20196;-77
2023/03/11 06:17:28;;;;;;;5.20;4.70;;;0.60;99.90;;;;;;2613055;54;20597;-76
2023/03/11 06:23:15;;;;;;;8.13;4.20;;;0.60;99.90;;;;;;2611658;54;20278;-76
2023/03/11 06:29:03;;;;;;;11.50;4.60;;;0.70;99.90;;;;;;2611187;54;20134;-76
2023/03/11 06:34:52;;;;;;;11.47;6.20;;;0.80;99.90;;;;;;2611726;54;20247;-76
2023/03/11 06:40:40;;;;;;;14.23;5.07;;;0.70;99.90;;;;;;2613340;54;20353;-76
2023/03/11 06:43:50;;;;;;;6.20;4.67;;;0.80;99.90;;;;;;2611925;47;20391;-74
2023/03/11 06:46:19;;;;;;;8.30;5.30;;;0.80;99.90;;;;;;2611097;39;20618;-76
2023/03/11 06:52:07;;;;;;;7.43;4.80;;;1.90;99.90;;;;;;2612728;54;20428;-76
2023/03/11 06:57:54;;;;;;;10.40;5.90;;;1.90;99.90;;;;;;2612258;54;20368;-77
2023/03/11 07:03:44;;;;;;;6.13;5.07;;;2.20;99.90;;;;;;2613076;54;20118;-75
2023/03/11 07:09:32;;;;;;;11.00;4.93;;;2.20;99.90;;;;;;2609302;54;20411;-76
2023/03/11 07:15:19;;;;;;;9.83;5.03;;;3.30;99.90;;;;;;2610921;54;20163;-75
2023/03/11 07:21:10;;;;;;;10.67;5.43;;;4.10;99.90;;;;;;2610272;54;20149;-75
2023/03/11 07:26:57;;;;;;;13.70;6.30;;;4.10;99.90;;;;;;2613082;46;20393;-76
2023/03/11 07:32:45;;;;;;;9.13;6.53;;;5.00;98.50;;;;;;2611726;54;20859;-78
2023/03/11 07:38:33;;;;;;;7.40;4.60;;;4.90;93.00;;;;;;2610205;54;20150;-75
2023/03/11 07:48:23;;;;;;;11.77;5.87;;;4.30;89.40;;;;;;2612531;54;20435;-75
2023/03/11 07:54:11;;;;;;;7.53;5.60;;;4.80;74.40;;;;;;2613365;54;20366;-75
2023/03/11 07:59:59;;;;;;;10.70;5.60;;;4.20;79.90;;;;;;2612578;54;20391;-75
2023/03/11 08:05:47;;;;;;;7.93;5.03;;;4.60;80.60;;;;;;2612722;54;20351;-75
2023/03/11 08:11:35;;;;;;;4.53;4.23;;;5.60;65.20;;;;;;2611687;54;20170;-73
2023/03/11 08:17:23;;;;;;;5.37;4.87;;;6.40;53.80;;;;;;2606579;54;20543;-75
2023/03/11 08:23:11;;;;;;;7.83;5.50;;;5.10;41.70;;;;;;2612229;54;20187;-74
2023/03/11 08:28:59;;;;;;;7.60;5.90;;;6.60;37.30;;;;;;2612414;46;20159;-74
2023/03/11 08:34:46;;;;;;;6.97;5.33;;;6.50;33.40;;;;;;2613332;54;20158;-74
2023/03/11 08:40:34;;;;;;;6.03;5.53;;;8.30;36.00;;;;;;2612931;54;20195;-75
2023/03/11 08:43:51;;;;;;;5.93;5.33;;;7.60;28.60;;;;;;2613225;46;20550;-75
2023/03/11 08:52:50;;;;;;;6.57;4.73;;;6.80;21.80;;;;;;2612767;54;20398;-74
2023/03/11 08:58:38;;;;;;;6.23;5.10;;;6.40;23.90;;;;;;2612788;54;20127;-74
2023/03/11 09:04:25;;;;;;;5.63;5.23;;;8.20;20.70;;;;;;2612466;54;20150;-74
2023/03/11 09:10:15;;;;;;;5.40;5.00;;;8.30;15.50;;;;;;2612753;54;20146;-75
2023/03/11 09:16:04;;;;;;;6.00;5.50;;;6.50;13.50;;;;;;2614100;54;20392;-74
2023/03/11 09:21:52;;;;;;;6.17;5.57;;;5.00;21.00;;;;;;2613961;54;20507;-74
2023/03/11 09:27:40;;;;;;;6.93;6.07;;;5.70;18.00;;;;;;2612589;54;20154;-74
2023/03/11 09:33:28;;;;;;;6.20;5.70;;;6.90;15.40;;;;;;2613021;54;20372;-75
2023/03/11 09:39:15;;;;;;;5.80;5.30;;;8.10;8.40;;;;;;2612411;54;20188;-75
2023/03/11 09:55:03;;;;;;;7.77;6.83;;;8.70;10.00;;;;;;2612600;54;20395;-73
2023/03/11 10:00:51;;;;;;;6.97;5.77;;;8.80;7.70;;;;;;2613850;54;20483;-75
2023/03/11 10:06:41;;;;;;;7.67;6.50;;;6.30;9.10;;;;;;2613640;54;20656;-75
2023/03/11 10:17:03;;;;;;;7.20;6.80;;;5.00;10.90;;;;;;2609699;54;21031;-75
2023/03/11 10:29:27;;;;;;;9.63;8.50;;;8.90;1.00;;;;;;2611546;54;20395;-75
2023/03/11 10:35:21;;;;;;;7.87;7.37;;;7.70;1.40;;;;;;2610808;54;20359;-74
2023/03/11 10:47:51;;;;;;;7.57;7.07;;;6.10;4.30;;;;;;2610445;54;20429;-75
2023/03/11 10:53:46;;;;;;;9.03;7.27;;;6.20;5.20;;;;;;2611473;54;20130;-75
2023/03/11 11:06:22;;;;;;;8.53;8.03;;;8.80;1.00;;;;;;2611410;54;20378;-75
2023/03/11 11:12:19;;;;;;;9.10;8.13;;;8.70;1.00;;;;;;2610198;54;20981;-75
2023/03/11 11:24:46;;;;;;;7.77;7.37;;;10.00;1.00;;;;;;2612700;54;20411;-73
2023/03/11 11:30:34;;;;;;;9.47;8.87;;;9.90;1.00;;;;;;2612922;54;21187;-72
2023/03/11 11:36:29;;;;;;;8.70;8.20;;;8.50;1.00;;;;;;2612341;54;20127;-74
2023/03/11 11:42:18;;;;;;;9.60;9.00;;;8.20;1.00;;;;;;2613708;54;20411;-74
2023/03/11 11:48:43;;;;;;;9.10;8.50;;;9.50;1.00;;;;;;2612565;54;20442;-75
2023/03/11 11:58:11;;;;;;;8.40;8.00;;;9.60;1.00;;;;;;2610777;54;20507;-75
2023/03/11 12:10:51;;;;;;;9.63;9.03;;;12.40;1.00;;;;;;2612125;54;20460;-75
2023/03/11 12:23:09;;;;;;;8.73;8.27;;;11.80;1.00;;;;;;2612699;39;20862;-75
2023/03/11 12:35:54;;;;;;;9.30;8.90;;;9.20;1.00;;;;;;2612122;54;20387;-74
2023/03/11 12:41:41;;;;;;;8.57;8.17;;;11.60;1.00;;;;;;2609930;54;20403;-74
2023/03/11 12:57:52;;;;;;;9.80;9.10;;;8.70;1.00;;;;;;2610793;54;20359;-75
2023/03/11 13:13:36;;;;;;;9.43;8.73;;;7.40;1.00;;;;;;2609862;54;20953;-75
2023/03/11 13:19:32;;;;;;;10.30;9.47;;;6.90;1.00;;;;;;2610000;54;20403;-75
2023/03/11 13:41:39;;;;;;;9.40;8.90;;;7.40;1.00;;;;;;2612757;54;20375;-76
2023/03/11 13:51:26;;;;;;;10.10;9.40;;;11.30;1.00;;;;;;2613490;54;20403;-75
2023/03/11 13:57:32;;;;;;;9.40;8.90;;;9.70;1.00;;;;;;2613784;54;20399;-75
2023/03/11 14:03:22;;;;;;;10.73;10.13;;;9.20;1.00;;;;;;2612308;54;20419;-75
2023/03/11 14:21:57;;;;;;;11.20;10.50;;;13.30;1.00;;;;;;2613502;54;20379;-75
2023/03/11 14:34:39;;;;;;;9.53;9.03;;;12.60;1.00;;;;;;2612999;54;20356;-74
2023/03/11 14:40:32;;;;;;;10.63;9.93;;;10.80;1.00;;;;;;2612674;54;20459;-76
2023/03/11 14:46:26;;;;;;;11.40;10.80;;;9.70;1.00;;;;;;2612745;47;20946;-76
2023/03/11 14:55:35;;;;;;;11.40;10.80;;;8.00;1.00;;;;;;2612506;54;21025;-75
2023/03/11 15:04:44;;;;;;;10.53;10.03;;;10.40;1.00;;;;;;2612930;54;20379;-75
2023/03/11 15:10:33;;;;;;;11.60;11.00;;;10.50;1.00;;;;;;2614033;54;20523;-75
2023/03/11 15:16:32;;;;;;;10.57;10.07;;;10.50;1.00;;;;;;2614013;54;21201;-74
2023/03/11 15:28:41;;;;;;;10.87;10.10;;;8.50;1.00;;;;;;2614483;54;20367;-75
2023/03/11 15:34:34;;;;;;;13.10;12.10;;;8.40;1.00;;;;;;2613900;54;20438;-74
2023/03/11 15:40:27;;;;;;;11.17;10.57;;;7.30;1.00;;;;;;2613694;54;20382;-75
2023/03/11 15:46:14;;;;;;;10.60;9.90;;;7.30;1.00;;;;;;2615038;54;20427;-74
2023/03/11 15:55:28;;;;;;;11.80;10.90;;;7.10;1.00;;;;;;2614697;54;20375;-69
2023/03/11 16:01:17;;;;;;;23.03;19.43;;;7.80;1.00;;;;;;2614681;54;20370;-69
2023/03/11 16:07:04;;;;;;;10.43;9.93;;;8.60;1.00;;;;;;2614403;54;20383;-70
2023/03/11 16:12:53;;;;;;;11.60;10.87;;;8.30;1.00;;;;;;2614623;54;20243;-68
2023/03/11 16:18:40;;;;;;;10.70;10.20;;;8.10;1.00;;;;;;2614305;54;20384;-69
2023/03/11 16:24:28;;;;;;;13.17;12.17;;;8.40;1.00;;;;;;2614528;54;20130;-69
2023/03/11 16:30:17;;;;;;;19.77;17.70;;;7.30;1.00;;;;;;2615345;39;20517;-69
2023/03/11 16:36:05;;;;;;;11.10;10.40;;;6.90;1.00;;;;;;2614445;54;20926;-70
2023/03/11 16:41:53;;;;;;;16.00;14.63;;;6.80;1.00;;;;;;2614375;54;20383;-70
2023/03/11 16:47:40;;;;;;;14.97;12.90;;;7.50;1.00;;;;;;2614854;54;20135;-70
2023/03/11 16:50:57;;;;;;;11.40;10.80;;;7.60;1.00;;;;;;2615635;31;20843;-68
2023/03/11 16:53:24;;;;;;;19.67;17.67;;;7.10;1.00;;;;;;2614464;54;20175;-69
2023/03/11 16:59:11;;;;;;;14.23;13.03;;;7.50;1.00;;;;;;2614548;54;20439;-70
2023/03/11 17:04:59;;;;;;;11.97;10.93;;;7.10;1.00;;;;;;2614462;54;20158;-70
2023/03/11 17:10:48;;;;;;;12.17;11.20;;;6.30;1.00;;;;;;2613696;39;20542;-69
2023/03/11 17:16:36;;;;;;;26.73;21.83;;;5.70;1.00;;;;;;2614212;54;20499;-70
2023/03/11 17:22:23;;;;;;;17.10;15.50;;;5.20;1.00;;;;;;2614130;54;20150;-70
2023/03/11 17:28:11;;;;;;;28.63;24.43;;;5.10;1.00;;;;;;2613928;39;20534;-70
2023/03/11 17:33:59;;;;;;;22.43;19.13;;;4.60;1.00;;;;;;2614307;54;20134;-69
2023/03/11 17:39:47;;;;;;;20.30;18.50;;;4.40;2.10;;;;;;2614784;54;20139;-69
2023/03/11 17:42:50;;;;;;;19.57;17.77;;;4.30;3.60;;;;;;2613714;54;20395;-70
2023/03/11 17:45:16;;;;;;;18.03;16.37;;;4.10;5.30;;;;;;2613401;54;20418;-70
2023/03/11 17:57:48;;;;;;;11.60;10.97;;;3.60;16.80;;;;;;2612740;54;20515;-70
2023/03/11 18:03:36;;;;;;;18.50;16.60;;;3.30;21.90;;;;;;2612783;54;20130;-69
2023/03/11 18:09:22;;;;;;;12.43;11.23;;;3.20;36.60;;;;;;2612921;54;20170;-71
2023/03/11 18:15:17;;;;;;;12.17;11.17;;;2.90;68.00;;;;;;2613103;54;20239;-69
2023/03/11 18:21:06;;;;;;;12.40;11.50;;;2.50;94.00;;;;;;2612859;54;20363;-70
2023/03/11 18:26:53;;;;;;;14.33;13.23;;;2.40;99.90;;;;;;2612709;54;20360;-70
2023/03/11 18:32:40;;;;;;;13.83;12.33;;;2.10;99.90;;;;;;2615005;39;20561;-70
2023/03/11 18:38:28;;;;;;;13.80;12.60;;;1.90;99.90;;;;;;2614519;54;20177;-70
2023/03/11 18:44:16;;;;;;;13.43;12.30;;;1.70;99.90;;;;;;2614686;46;20394;-69
2023/03/11 18:50:04;;;;;;;12.57;11.27;;;1.60;99.90;;;;;;2614254;54;20118;-70
2023/03/11 19:02:24;;;;;;;12.90;11.80;;;1.30;99.90;;;;;;2612863;54;20512;-70
2023/03/11 19:08:12;;;;;;;13.30;12.10;;;1.20;99.90;;;;;;2611928;46;20402;-75
2023/03/11 19:13:59;;;;;;;13.23;11.93;;;1.10;99.90;;;;;;2612784;54;20419;-75
2023/03/11 19:19:47;;;;;;;12.40;11.30;;;0.90;99.90;;;;;;2613034;54;20156;-75
2023/03/11 19:25:34;;;;;;;13.17;12.00;;;0.80;99.90;;;;;;2611939;54;20133;-75
2023/03/11 19:31:21;;;;;;;15.00;12.90;;;0.80;99.90;;;;;;2612747;54;20456;-75
2023/03/11 19:37:08;;;;;;;15.23;13.40;;;0.80;99.90;;;;;;2614218;54;20151;-75
2023/03/11 19:42:59;;;;;;;19.90;14.87;;;0.60;99.90;;;;;;2613081;54;20130;-75
2023/03/11 19:48:47;;;;;;;20.37;18.33;;;0.50;99.90;;;;;;2614041;54;20909;-75
2023/03/11 19:57:57;;;;;;;23.47;14.03;;;0.40;99.90;;;;;;2613971;54;20434;-75
2023/03/11 20:03:45;;;;;;;17.13;15.40;;;0.70;99.90;;;;;;2613856;54;20134;-76
2023/03/11 20:09:34;;;;;;;16.63;14.97;;;0.80;99.90;;;;;;2613780;54;20398;-75
2023/03/11 20:15:21;;;;;;;19.93;17.70;;;1.00;99.90;;;;;;2613968;54;20378;-75
2023/03/11 20:21:11;;;;;;;20.47;18.27;;;1.40;99.90;;;;;;2612924;54;20161;-75
2023/03/11 20:26:59;;;;;;;16.07;14.67;;;1.50;99.90;;;;;;2615047;54;20370;-75
2023/03/11 20:32:47;;;;;;;18.50;16.90;;;1.50;99.90;;;;;;2615144;39;20210;-74
2023/03/11 20:38:35;;;;;;;34.57;18.50;;;1.60;99.90;;;;;;2614034;39;20736;-75
2023/03/11 20:44:23;;;;;;;24.50;18.10;;;1.60;99.90;;;;;;2614576;54;20166;-74
2023/03/11 20:50:11;;;;;;;16.60;15.07;;;1.60;99.90;;;;;;2614780;54;20150;-75
2023/03/11 20:53:29;;;;;;;17.93;16.17;;;1.60;99.90;;;;;;2613979;47;20419;-75
2023/03/11 21:02:13;;;;;;;17.17;15.50;;;1.60;99.90;;;;;;2613700;54;20965;-75
2023/03/11 21:08:00;;;;;;;14.47;13.07;;;1.70;99.90;;;;;;2614448;54;20455;-75
2023/03/11 21:13:48;;;;;;;13.43;12.23;;;1.50;99.90;;;;;;2614960;39;20640;-74
2023/03/11 21:19:35;;;;;;;15.23;13.83;;;1.30;99.90;;;;;;2613456;54;20150;-74
2023/03/11 21:25:23;;;;;;;14.97;13.63;;;1.10;99.90;;;;;;2614839;39;20568;-75
2023/03/11 21:37:38;;;;;;;16.37;14.77;;;0.60;99.90;;;;;;2612858;54;20363;-74
2023/03/11 21:43:25;;;;;;;17.30;14.57;;;0.40;99.90;;;;;;2613063;54;20134;-76
2023/03/11 21:49:12;;;;;;;15.57;13.97;;;0.30;99.90;;;;;;2613514;39;20612;-75
2023/03/11 21:58:20;;;;;;;16.50;14.87;;;0.10;99.90;;;;;;2610358;54;20542;-75
2023/03/11 22:04:08;;;;;;;15.63;12.90;;;0.00;99.90;;;;;;2612621;54;20221;-75
2023/03/11 22:09:55;;;;;;;14.80;13.47;;;0.00;99.90;;;;;;2611831;54;20135;-75
2023/03/11 22:15:43;;;;;;;14.27;13.00;;;0.10;99.90;;;;;;2614416;54;20134;-75
2023/03/11 22:21:31;;;;;;;13.70;12.50;;;0.00;99.90;;;;;;2613597;54;20154;-76
2023/03/11 22:27:19;;;;;;;15.53;12.93;;;0.20;99.90;;;;;;2614362;54;20135;-75
2023/03/11 22:33:06;;;;;;;15.30;13.70;;;0.50;99.90;;;;;;2613186;54;20136;-75
2023/03/11 22:38:55;;;;;;;15.97;14.37;;;0.60;99.90;;;;;;2614409;54;20130;-75
2023/03/11 22:44:43;;;;;;;14.70;13.37;;;1.10;99.90;;;;;;2613066;54;20387;-75
2023/03/11 22:50:32;;;;;;;15.73;14.37;;;1.50;99.90;;;;;;2612190;39;20657;-76
2023/03/11 22:53:44;;;;;;;16.10;14.40;;;1.60;99.90;;;;;;2608966;54;20994;-75
2023/03/11 22:56:13;;;;;;;17.07;14.83;;;1.60;99.90;;;;;;2612370;54;20844;-75
2023/03/11 23:02:02;;;;;;;14.90;13.40;;;1.50;99.90;;;;;;2609642;54;20383;-75
2023/03/11 23:07:50;;;;;;;13.97;12.87;;;1.80;99.90;;;;;;2611547;54;20362;-75
2023/03/11 23:13:38;;;;;;;14.80;12.60;;;1.80;99.90;;;;;;2611574;54;20417;-75
2023/03/11 23:19:26;;;;;;;31.37;14.90;;;1.80;99.90;;;;;;2612361;54;20363;-75
2023/03/11 23:25:15;;;;;;;14.60;12.90;;;1.90;99.20;;;;;;2610271;54;20154;-75
2023/03/11 23:31:03;;;;;;;13.17;12.00;;;1.90;99.40;;;;;;2611729;54;20399;-75
2023/03/11 23:36:50;;;;;;;13.80;12.73;;;1.90;98.90;;;;;;2611650;54;20382;-75
2023/03/11 23:42:38;;;;;;;13.40;12.20;;;2.00;96.80;;;;;;2612719;54;20158;-74
2023/03/11 23:45:41;;;;;;;21.67;14.10;;;1.90;97.30;;;;;;2612561;54;20399;-75
2023/03/11 23:48:07;;;;;;;12.53;11.33;;;1.90;99.70;;;;;;2613441;54;20167;-75
2023/03/11 23:58:16;;;;;;;14.43;13.33;;;2.00;96.50;;;;;;2613010;54;20500;-75
